Metar z pełnej godziny Komunikat METAR ze strony awiacja.imgw.pl Metar G00 EPWR METAR EPWR 271500Z 14008KT CAVOK 02/M01 Q0995 =